OECDV EDDV-EDDV

Flight info

Callsign OECDV
Flight time 0h 5m
Altitude
Route
Aircraft DV20

Departure

Time 2026-05-04 20:49
Airport Hannover Airport (EDDV)

Arrival

Time 2026-05-04 20:54
Airport Hannover Airport (EDDV)
Time Latitude Longitude Altitude Speed Heading
2026-05-04 20:42 52.46294 9.69218 175 ft 0 kts 150°
2026-05-04 20:43 52.46294 9.69219 175 ft 2 kts 162°
2026-05-04 20:43 52.46294 9.69294 175 ft 11 kts 41°
2026-05-04 20:44 52.46330 9.69285 176 ft 0 kts 336°
2026-05-04 20:44 52.46352 9.69270 177 ft 9 kts 334°
2026-05-04 20:45 52.46354 9.69199 177 ft 0 kts 249°
2026-05-04 20:45 52.46356 9.69186 177 ft 0 kts 322°
2026-05-04 20:45 52.46356 9.69181 177 ft 3 kts 176°
2026-05-04 20:45 52.46378 9.69303 178 ft 13 kts 70°
2026-05-04 20:46 52.46415 9.69455 180 ft 16 kts 68°
2026-05-04 20:46 52.46464 9.69657 174 ft 21 kts 70°
2026-05-04 20:46 52.46515 9.69868 170 ft 19 kts 64°
2026-05-04 20:46 52.46597 9.69948 171 ft 7 kts
2026-05-04 20:47 52.46602 9.69948 171 ft 0 kts
2026-05-04 20:48 52.46603 9.69949 171 ft 3 kts
2026-05-04 20:48 52.46676 9.69916 173 ft 15 kts 314°
2026-05-04 20:48 52.46702 9.69725 171 ft 27 kts 274°
2026-05-04 20:48 52.46716 9.69191 181 ft 63 kts 273°
2026-05-04 20:49 52.46756 9.68524 366 ft 63 kts 273°
2026-05-04 20:49 52.46775 9.67776 542 ft 67 kts 271°
2026-05-04 20:49 52.46798 9.67087 794 ft 57 kts 272°
2026-05-04 20:49 52.46816 9.66423 978 ft 59 kts 287°
2026-05-04 20:50 52.47177 9.66231 1160 ft 59 kts 358°
2026-05-04 20:50 52.47586 9.66234 1276 ft 60 kts 355°
2026-05-04 20:50 52.48006 9.66267 1387 ft 60 kts
2026-05-04 20:50 52.48460 9.66417 1410 ft 73 kts 16°
2026-05-04 20:51 52.48688 9.67126 1476 ft 78 kts 96°
2026-05-04 20:51 52.48614 9.68041 1537 ft 82 kts 95°
2026-05-04 20:51 52.48543 9.68957 1659 ft 80 kts 98°
2026-05-04 20:51 52.48469 9.69898 1693 ft 85 kts 96°
2026-05-04 20:52 52.48391 9.70807 1632 ft 78 kts 100°
2026-05-04 20:52 52.48293 9.71657 1556 ft 75 kts 104°
2026-05-04 20:52 52.47925 9.72106 1407 ft 75 kts 171°
2026-05-04 20:52 52.47419 9.72224 1215 ft 72 kts 181°
2026-05-04 20:53 52.46926 9.72211 1058 ft 70 kts 187°
2026-05-04 20:53 52.46634 9.71729 911 ft 64 kts 242°
2026-05-04 20:53 52.46651 9.71020 701 ft 59 kts 295°
2026-05-04 20:53 52.46695 9.70299 359 ft 79 kts 272°
2026-05-04 20:54 52.46706 9.69473 192 ft 70 kts 270°
2026-05-04 20:54 52.46727 9.68800 173 ft 50 kts 271°
2026-05-04 20:54 52.46741 9.68302 173 ft 49 kts 271°
2026-05-04 20:54 52.46763 9.67597 268 ft 65 kts 273°
2026-05-04 20:55 52.46790 9.66875 475 ft 64 kts 274°
2026-05-04 20:55 52.47009 9.66317 631 ft 67 kts 356°
2026-05-04 20:55 52.47451 9.66322 772 ft 63 kts 357°
2026-05-04 20:55 52.47910 9.66350 888 ft 66 kts
2026-05-04 20:56 52.48378 9.66477 1014 ft 70 kts 15°
2026-05-04 20:56 52.48818 9.66750 1184 ft 65 kts 20°
2026-05-04 20:56 52.49227 9.67119 1319 ft 68 kts 40°
2026-05-04 20:56 52.49361 9.67870 1434 ft 77 kts 92°
2026-05-04 20:57 52.49312 9.68801 1504 ft 87 kts 97°
2026-05-04 20:57 52.49215 9.69769 1607 ft 85 kts 102°
2026-05-04 20:57 52.49092 9.70722 1615 ft 85 kts 103°
2026-05-04 20:57 52.48974 9.71591 1539 ft 76 kts 103°
2026-05-04 20:58 52.48805 9.72378 1434 ft 72 kts 134°
2026-05-04 20:58 52.48357 9.72675 1300 ft 71 kts 180°
2026-05-04 20:58 52.47848 9.72719 1140 ft 70 kts 180°
2026-05-04 20:58 52.47375 9.72779 1012 ft 65 kts 182°
2026-05-04 20:59 52.47084 9.72744 903 ft 64 kts 199°
2026-05-04 20:59 52.46704 9.72041 681 ft 66 kts 243°
2026-05-04 20:59 52.46651 9.71304 489 ft 64 kts 250°
2026-05-04 20:59 52.46677 9.70559 282 ft 64 kts 269°
2026-05-04 21:00 52.46697 9.69867 185 ft 55 kts 272°
2026-05-04 21:00 52.46710 9.69329 171 ft 40 kts 275°
2026-05-04 21:00 52.46720 9.69067 171 ft 29 kts 273°
2026-05-04 21:00 52.46714 9.69009 172 ft 6 kts 116°
2026-05-04 21:01 52.46714 9.69177 171 ft 21 kts 92°
2026-05-04 21:01 52.46707 9.69430 172 ft 23 kts 91°
2026-05-04 21:01 52.46699 9.69687 171 ft 21 kts 93°
2026-05-04 21:01 52.46656 9.69934 173 ft 15 kts 156°
2026-05-04 21:02 52.46557 9.69932 169 ft 14 kts 203°
2026-05-04 21:02 52.46514 9.69868 170 ft 12 kts 241°
2026-05-04 21:02 52.46485 9.69750 173 ft 11 kts 248°
2026-05-04 21:02 52.46456 9.69623 175 ft 13 kts 248°
2026-05-04 21:03 52.46418 9.69477 180 ft 16 kts 247°
2026-05-04 21:03 52.46379 9.69302 178 ft 9 kts 247°
2026-05-04 21:03 52.46332 9.69284 176 ft 8 kts 159°
2026-05-04 21:03 52.46285 9.69275 175 ft 4 kts 254°
2026-05-04 21:04 52.46291 9.69250 175 ft 4 kts 332°
2026-05-04 21:04 52.46318 9.69254 175 ft 4 kts 95°
2026-05-04 21:04 52.46306 9.69270 175 ft 0 kts 151°
2026-05-04 21:04 52.46305 9.69271 175 ft 0 kts 152°